Time;durP1;ratioP1;P1;durP2;ratioP2;P2;SDS_P1;SDS_P2;PMS_P1;PMS_P2;Temp;Humidity;BMP_temperature;BMP_pressure;BME280_temperature;BME280_humidity;BME280_pressure;Samples;Min_cycle;Max_cycle;Signal;HPM_P1;HPM_P2
2023/06/15 00:00:33;;;;;;;2.53;1.10;;;20.70;46.00;;;;;;5050834;28;20590;-74
2023/06/15 00:02:59;;;;;;;2.13;1.30;;;20.60;46.30;;;;;;5068511;28;20622;-75
2023/06/15 00:05:25;;;;;;;1.70;1.00;;;20.60;46.60;;;;;;5051020;28;20630;-75
2023/06/15 00:07:51;;;;;;;2.67;1.30;;;20.60;47.10;;;;;;5034824;28;20195;-75
2023/06/15 00:10:17;;;;;;;3.77;1.30;;;20.60;46.60;;;;;;5050953;28;20606;-75
2023/06/15 00:12:43;;;;;;;1.90;1.00;;;20.50;46.30;;;;;;5050315;28;20602;-74
2023/06/15 00:15:10;;;;;;;2.43;1.20;;;20.50;48.00;;;;;;5069250;28;20623;-74
2023/06/15 00:17:37;;;;;;;1.60;1.00;;;20.40;46.50;;;;;;5034416;28;20722;-75
2023/06/15 00:20:08;;;;;;;2.77;0.97;;;20.40;47.00;;;;;;5051050;28;20593;-74
2023/06/15 00:22:34;;;;;;;1.80;1.10;;;20.40;46.70;;;;;;5067991;28;20618;-74
2023/06/15 00:25:00;;;;;;;2.57;1.33;;;20.40;46.60;;;;;;5051453;28;20602;-74
2023/06/15 00:27:26;;;;;;;1.87;1.20;;;20.40;47.30;;;;;;5070573;28;20606;-74
2023/06/15 00:29:52;;;;;;;2.77;1.10;;;20.30;46.80;;;;;;5073780;28;20684;-74
2023/06/15 00:32:18;;;;;;;1.90;1.00;;;20.30;46.80;;;;;;5092308;28;20163;-74
2023/06/15 00:34:43;;;;;;;1.87;1.30;;;20.30;46.90;;;;;;5074606;28;20665;-74
2023/06/15 00:37:12;;;;;;;2.07;1.30;;;20.20;46.90;;;;;;5050434;28;20578;-74
2023/06/15 00:39:37;;;;;;;2.33;1.20;;;20.20;46.90;;;;;;5092757;28;20577;-75
2023/06/15 00:42:03;;;;;;;3.40;1.40;;;20.20;47.10;;;;;;5069840;28;20234;-74
2023/06/15 00:44:29;;;;;;;3.50;1.40;;;20.10;47.30;;;;;;5072339;28;20161;-74
2023/06/15 00:46:56;;;;;;;2.10;1.30;;;20.10;48.20;;;;;;5054689;28;20713;-74
2023/06/15 00:49:23;;;;;;;1.90;1.20;;;20.00;47.60;;;;;;5054615;28;20603;-74
2023/06/15 00:51:49;;;;;;;2.10;1.33;;;20.00;48.10;;;;;;5053459;28;20589;-74
2023/06/15 00:54:21;;;;;;;2.07;1.33;;;20.00;48.10;;;;;;5054191;28;20249;-74
2023/06/15 00:56:48;;;;;;;2.30;1.03;;;20.00;48.10;;;;;;5025574;22;20767;-77
2023/06/15 00:59:14;;;;;;;2.40;1.67;;;20.00;48.40;;;;;;4991832;28;21171;-78
2023/06/15 01:01:41;;;;;;;2.10;1.13;;;20.00;48.10;;;;;;4996837;28;20658;-77
2023/06/15 01:04:08;;;;;;;1.80;1.20;;;20.00;48.10;;;;;;5004460;28;20944;-77
2023/06/15 01:06:37;;;;;;;2.77;1.20;;;20.00;48.40;;;;;;4991667;28;20641;-77
2023/06/15 01:09:04;;;;;;;2.67;1.40;;;20.10;48.40;;;;;;4970741;28;20500;-77
2023/06/15 01:11:32;;;;;;;1.70;1.13;;;20.10;48.50;;;;;;4980033;28;21157;-77
2023/06/15 01:14:00;;;;;;;1.70;1.20;;;20.00;48.40;;;;;;4951665;28;20661;-78
2023/06/15 01:16:38;;;;;;;2.27;1.10;;;20.10;48.40;;;;;;4971300;28;21010;-77
2023/06/15 01:19:09;;;;;;;1.90;1.20;;;20.00;48.30;;;;;;4996359;28;20590;-78
2023/06/15 01:21:36;;;;;;;2.50;1.20;;;20.10;48.40;;;;;;4971201;28;20594;-76
2023/06/15 01:24:24;;;;;;;2.00;1.10;;;20.00;48.60;;;;;;4971644;28;21170;-77
2023/06/15 01:26:52;;;;;;;2.43;1.30;;;20.00;48.80;;;;;;4971340;28;20619;-76
2023/06/15 01:29:20;;;;;;;2.40;1.27;;;20.00;48.50;;;;;;4992568;28;20617;-77
2023/06/15 01:31:47;;;;;;;2.30;1.30;;;19.90;48.50;;;;;;4995823;28;20638;-77
2023/06/15 01:34:12;;;;;;;2.10;1.20;;;19.90;48.50;;;;;;4988834;28;20650;-77
2023/06/15 01:36:40;;;;;;;2.30;1.20;;;19.90;48.60;;;;;;4991286;28;20693;-77
2023/06/15 01:39:07;;;;;;;3.40;1.63;;;19.90;48.70;;;;;;4977495;28;20646;-77
2023/06/15 01:41:34;;;;;;;3.80;1.10;;;19.80;48.70;;;;;;4970625;28;20183;-77
2023/06/15 01:44:03;;;;;;;2.00;1.10;;;19.80;48.90;;;;;;4955844;28;20599;-77
2023/06/15 01:46:30;;;;;;;2.73;1.30;;;19.70;48.80;;;;;;5001725;28;20813;-77
2023/06/15 01:48:56;;;;;;;2.00;1.23;;;19.70;49.00;;;;;;5012129;28;20581;-77
2023/06/15 01:51:23;;;;;;;2.30;1.20;;;19.60;49.00;;;;;;5009420;28;20934;-77
2023/06/15 01:53:49;;;;;;;3.10;1.30;;;19.60;49.10;;;;;;5010067;28;20621;-77
2023/06/15 01:56:16;;;;;;;3.03;1.23;;;19.60;49.10;;;;;;5009852;28;20772;-78
2023/06/15 01:58:42;;;;;;;2.77;1.33;;;19.50;49.10;;;;;;5009656;28;21030;-77
2023/06/15 02:01:08;;;;;;;2.00;1.10;;;19.50;49.20;;;;;;5008905;28;20589;-76
2023/06/15 02:03:33;;;;;;;1.93;1.20;;;19.50;49.40;;;;;;5002222;28;20573;-76
2023/06/15 02:05:59;;;;;;;3.13;1.53;;;19.50;49.50;;;;;;5012229;28;20212;-76
2023/06/15 02:08:25;;;;;;;3.60;1.67;;;19.40;49.50;;;;;;5009653;28;20235;-75
2023/06/15 02:10:51;;;;;;;2.60;1.27;;;19.40;49.60;;;;;;5009602;28;20186;-76
2023/06/15 02:13:17;;;;;;;2.30;1.50;;;19.40;49.70;;;;;;5009811;28;20936;-76
2023/06/15 02:15:43;;;;;;;2.27;1.50;;;19.30;49.80;;;;;;5010422;28;20313;-77
2023/06/15 02:18:14;;;;;;;3.10;1.77;;;19.30;49.90;;;;;;4993718;28;20182;-76
2023/06/15 02:20:44;;;;;;;2.53;1.50;;;19.30;50.10;;;;;;4992276;28;20631;-77
2023/06/15 02:23:10;;;;;;;3.80;1.60;;;19.20;50.10;;;;;;5009640;28;20584;-77
2023/06/15 02:25:37;;;;;;;2.83;1.30;;;19.20;50.10;;;;;;5008172;28;20709;-77
2023/06/15 02:28:03;;;;;;;3.00;1.77;;;19.20;50.20;;;;;;4976661;28;20602;-77
2023/06/15 02:30:29;;;;;;;2.57;1.93;;;19.10;50.30;;;;;;4967126;28;20631;-77
2023/06/15 02:33:00;;;;;;;2.20;1.60;;;19.10;50.40;;;;;;4969687;28;20733;-77
2023/06/15 02:35:26;;;;;;;2.53;1.40;;;19.10;50.50;;;;;;4971241;28;20709;-76
2023/06/15 02:37:52;;;;;;;2.13;1.20;;;19.10;50.60;;;;;;4982604;28;20657;-77
2023/06/15 02:40:20;;;;;;;3.00;1.90;;;19.00;50.70;;;;;;4994249;28;20634;-77
2023/06/15 02:42:46;;;;;;;3.93;1.30;;;19.00;50.80;;;;;;4974043;28;20660;-76
2023/06/15 02:45:12;;;;;;;3.97;1.53;;;18.90;50.80;;;;;;4976502;28;20996;-77
2023/06/15 02:47:40;;;;;;;2.20;1.30;;;18.90;51.00;;;;;;4972382;28;20547;-76
2023/06/15 02:50:07;;;;;;;2.00;1.40;;;18.90;51.10;;;;;;4980220;28;20623;-77
2023/06/15 02:52:38;;;;;;;1.70;1.10;;;18.90;51.10;;;;;;4972123;28;20602;-77
2023/06/15 02:55:08;;;;;;;2.53;1.30;;;18.80;51.10;;;;;;4980932;28;20621;-76
2023/06/15 02:57:34;;;;;;;2.73;1.43;;;18.80;51.30;;;;;;4991326;28;20694;-77
2023/06/15 03:00:14;;;;;;;2.60;1.33;;;18.80;51.40;;;;;;4989437;28;20650;-77
2023/06/15 03:02:47;;;;;;;1.70;1.10;;;18.70;51.50;;;;;;4972928;28;20741;-76
2023/06/15 03:05:14;;;;;;;2.80;1.37;;;18.70;51.50;;;;;;4973244;28;21068;-77
2023/06/15 03:07:48;;;;;;;1.80;1.30;;;18.70;52.30;;;;;;4989890;28;20582;-77
2023/06/15 03:10:27;;;;;;;2.50;1.67;;;18.70;51.80;;;;;;4992065;28;20589;-76
2023/06/15 03:12:53;;;;;;;2.73;1.63;;;18.60;51.80;;;;;;5008332;28;20635;-76
2023/06/15 03:15:19;;;;;;;2.07;1.13;;;18.60;51.90;;;;;;5010250;28;20241;-76
2023/06/15 03:17:45;;;;;;;4.33;1.80;;;18.60;52.10;;;;;;5008284;28;20582;-76
2023/06/15 03:20:14;;;;;;;2.60;1.83;;;18.50;52.10;;;;;;5011336;28;20689;-76
2023/06/15 03:22:40;;;;;;;2.10;1.53;;;18.50;52.30;;;;;;5023950;28;20956;-76
2023/06/15 03:25:11;;;;;;;2.10;1.30;;;18.50;52.50;;;;;;5008980;28;20605;-77
2023/06/15 03:27:37;;;;;;;2.43;1.47;;;18.50;52.60;;;;;;5008933;28;21192;-77
2023/06/15 03:30:10;;;;;;;2.27;1.20;;;18.50;52.60;;;;;;4992003;28;20578;-77
2023/06/15 03:32:37;;;;;;;2.10;1.30;;;18.40;52.60;;;;;;4977859;28;20621;-76
2023/06/15 03:35:05;;;;;;;3.27;1.40;;;18.40;52.70;;;;;;4953061;28;20632;-75
2023/06/15 03:37:31;;;;;;;1.93;1.30;;;18.40;52.90;;;;;;4980854;28;20600;-76
2023/06/15 03:39:58;;;;;;;2.43;1.60;;;18.30;53.50;;;;;;4991844;28;20589;-76
2023/06/15 03:42:25;;;;;;;2.27;1.70;;;18.30;53.00;;;;;;5007510;28;20596;-76
2023/06/15 03:44:51;;;;;;;2.50;2.17;;;18.30;53.10;;;;;;4992336;28;20597;-76
2023/06/15 03:47:17;;;;;;;1.93;1.30;;;18.30;53.20;;;;;;5008676;28;20675;-76
2023/06/15 03:49:43;;;;;;;3.60;1.50;;;18.30;53.30;;;;;;4992321;28;21141;-76
2023/06/15 03:52:09;;;;;;;3.40;1.60;;;18.30;53.40;;;;;;4991434;28;20213;-76
2023/06/15 03:54:35;;;;;;;2.50;1.60;;;18.30;53.50;;;;;;5008708;28;20631;-77
2023/06/15 03:57:04;;;;;;;2.80;1.60;;;18.30;53.70;;;;;;5008972;28;20664;-76
2023/06/15 03:59:29;;;;;;;2.17;1.40;;;18.30;53.70;;;;;;5008344;28;20680;-77
2023/06/15 04:01:55;;;;;;;2.60;1.90;;;18.30;53.90;;;;;;5006935;28;20755;-76
2023/06/15 04:04:21;;;;;;;3.80;1.60;;;18.30;53.90;;;;;;5010547;28;20265;-76
2023/06/15 04:06:47;;;;;;;3.93;1.60;;;18.30;54.00;;;;;;5012062;28;20194;-77
2023/06/15 04:09:14;;;;;;;3.50;1.73;;;18.40;54.40;;;;;;5011460;28;20193;-77
2023/06/15 04:11:41;;;;;;;2.47;1.63;;;18.50;54.40;;;;;;4994803;28;20608;-77
2023/06/15 04:14:07;;;;;;;2.97;1.40;;;18.50;54.40;;;;;;4995534;28;20589;-77
2023/06/15 04:16:34;;;;;;;2.70;1.40;;;18.60;54.70;;;;;;4995125;28;20812;-77
2023/06/15 04:19:00;;;;;;;2.83;1.63;;;18.60;54.60;;;;;;4979302;28;20589;-77
2023/06/15 04:21:27;;;;;;;2.57;1.40;;;18.70;54.60;;;;;;4994922;28;20577;-77
2023/06/15 04:23:53;;;;;;;2.83;2.03;;;18.70;54.70;;;;;;5011725;28;20639;-75
2023/06/15 04:26:19;;;;;;;10.70;1.80;;;18.80;54.90;;;;;;5012748;28;21101;-76
2023/06/15 04:32:35;;;;;;;3.50;1.60;;;19.10;55.60;;;;;;4982235;28;21033;-77
2023/06/15 04:35:04;;;;;;;2.63;1.60;;;19.30;55.30;;;;;;4977105;28;20579;-77
2023/06/15 04:37:32;;;;;;;2.97;1.97;;;19.50;55.30;;;;;;4987945;28;20605;-77
2023/06/15 04:40:00;;;;;;;2.73;1.80;;;19.70;55.30;;;;;;4994936;28;20639;-77
2023/06/15 04:42:33;;;;;;;4.33;2.23;;;19.90;55.50;;;;;;5011253;28;20597;-77
2023/06/15 04:45:00;;;;;;;4.90;1.90;;;20.10;55.80;;;;;;4995118;28;20588;-77
2023/06/15 04:47:26;;;;;;;3.90;2.10;;;20.20;55.60;;;;;;5011485;28;20632;-76
2023/06/15 04:49:52;;;;;;;2.77;1.80;;;20.30;55.50;;;;;;5011887;28;20178;-76
2023/06/15 04:52:18;;;;;;;2.23;1.70;;;20.40;55.40;;;;;;4993678;28;20584;-76
2023/06/15 04:54:57;;;;;;;3.30;1.60;;;20.60;55.60;;;;;;5011780;28;20593;-77
2023/06/15 04:57:23;;;;;;;3.97;1.83;;;20.80;55.90;;;;;;4994891;28;20573;-78
2023/06/15 04:59:56;;;;;;;3.73;1.80;;;21.10;55.90;;;;;;5012050;28;20743;-78
2023/06/15 05:02:22;;;;;;;3.40;2.57;;;21.20;55.70;;;;;;5009326;28;20597;-77
2023/06/15 05:04:49;;;;;;;2.20;1.73;;;21.40;55.60;;;;;;5010829;28;20593;-77
2023/06/15 05:07:14;;;;;;;3.00;2.53;;;21.60;55.60;;;;;;5011133;28;21163;-77
2023/06/15 05:09:45;;;;;;;4.07;1.90;;;21.70;55.50;;;;;;4998590;28;20184;-77
2023/06/15 05:12:16;;;;;;;2.63;1.80;;;21.90;55.50;;;;;;4993505;28;20628;-76
2023/06/15 05:14:43;;;;;;;4.23;1.70;;;22.10;55.60;;;;;;5009981;28;20593;-78
2023/06/15 05:17:09;;;;;;;2.50;1.80;;;22.40;55.70;;;;;;5010608;28;20642;-77
2023/06/15 05:19:35;;;;;;;2.90;1.77;;;22.70;55.50;;;;;;5010139;28;20808;-77
2023/06/15 05:22:02;;;;;;;2.13;1.47;;;22.90;55.80;;;;;;5009738;28;20665;-77
2023/06/15 05:24:30;;;;;;;3.00;2.13;;;23.10;54.90;;;;;;4991106;28;20187;-77
2023/06/15 05:26:57;;;;;;;3.17;2.00;;;23.30;54.70;;;;;;4964041;28;20734;-77
2023/06/15 05:29:24;;;;;;;4.80;2.10;;;23.40;54.40;;;;;;4972044;28;20599;-77
2023/06/15 05:31:50;;;;;;;5.00;1.83;;;23.40;54.10;;;;;;4954664;28;20634;-77
2023/06/15 05:34:17;;;;;;;2.10;1.60;;;23.40;53.70;;;;;;4989723;28;20647;-77
2023/06/15 05:36:43;;;;;;;3.30;1.70;;;23.50;53.70;;;;;;5002456;28;21148;-78
2023/06/15 05:39:09;;;;;;;2.40;1.43;;;23.70;53.60;;;;;;5010846;28;20535;-77
2023/06/15 05:41:35;;;;;;;3.23;1.60;;;23.80;53.60;;;;;;4976810;28;20660;-77
2023/06/15 05:44:02;;;;;;;5.70;2.00;;;23.90;54.10;;;;;;5010579;28;20589;-78
2023/06/15 05:46:28;;;;;;;4.93;1.43;;;24.20;53.60;;;;;;5012713;28;20640;-77
2023/06/15 05:48:54;;;;;;;2.80;1.87;;;24.40;53.40;;;;;;4994741;28;21202;-77
2023/06/15 05:51:20;;;;;;;4.73;1.73;;;24.50;52.90;;;;;;5009861;28;20660;-77
2023/06/15 05:53:46;;;;;;;3.70;1.87;;;24.70;52.90;;;;;;4993312;28;20590;-78
2023/06/15 05:56:14;;;;;;;3.27;1.57;;;25.10;53.20;;;;;;5010336;28;20217;-77
2023/06/15 05:58:40;;;;;;;2.93;1.37;;;25.70;53.60;;;;;;5010232;28;21003;-77
2023/06/15 06:01:07;;;;;;;3.10;1.30;;;26.50;53.80;;;;;;5010573;28;20624;-78
2023/06/15 06:03:35;;;;;;;2.00;1.47;;;27.40;53.40;;;;;;4994917;28;21172;-77
2023/06/15 06:06:04;;;;;;;4.07;1.40;;;28.10;51.90;;;;;;4994239;28;20678;-78
2023/06/15 06:08:30;;;;;;;2.13;1.30;;;28.60;50.90;;;;;;4993711;28;20958;-78
2023/06/15 06:10:56;;;;;;;2.60;1.27;;;29.10;50.50;;;;;;5010819;28;20170;-78
2023/06/15 06:13:30;;;;;;;3.63;1.30;;;29.70;49.90;;;;;;4995149;28;20700;-78
2023/06/15 06:15:57;;;;;;;2.50;1.47;;;30.50;49.50;;;;;;5011838;28;20664;-77
2023/06/15 06:18:23;;;;;;;3.90;1.83;;;31.20;48.90;;;;;;4993631;28;20591;-78
2023/06/15 06:20:49;;;;;;;2.67;1.30;;;31.90;47.30;;;;;;5004750;28;20966;-78
2023/06/15 06:23:15;;;;;;;4.60;1.50;;;32.40;47.00;;;;;;4984158;28;20181;-77
2023/06/15 06:25:41;;;;;;;3.00;1.20;;;32.80;45.40;;;;;;4971805;28;20204;-77
2023/06/15 06:28:08;;;;;;;3.47;1.40;;;33.00;44.80;;;;;;4989719;28;20592;-78
2023/06/15 06:30:34;;;;;;;3.20;1.30;;;33.50;44.50;;;;;;4973862;28;20593;-78
2023/06/15 06:33:02;;;;;;;2.10;1.43;;;34.00;43.70;;;;;;4997099;28;20192;-78
2023/06/15 06:35:28;;;;;;;3.90;1.80;;;34.50;43.30;;;;;;5009270;28;20273;-78
2023/06/15 06:37:53;;;;;;;3.27;1.07;;;34.90;42.90;;;;;;5010724;28;20581;-77
2023/06/15 06:40:19;;;;;;;2.97;1.33;;;35.20;42.10;;;;;;5009451;28;20261;-78
2023/06/15 06:42:45;;;;;;;3.43;1.20;;;35.40;41.50;;;;;;5008339;28;20178;-77
2023/06/15 06:45:12;;;;;;;3.50;1.77;;;35.80;41.30;;;;;;5009469;28;20620;-77
2023/06/15 06:47:38;;;;;;;2.40;1.40;;;36.10;40.80;;;;;;5026124;28;20604;-78
2023/06/15 06:50:06;;;;;;;2.53;1.53;;;36.50;40.30;;;;;;5010152;28;20589;-77
2023/06/15 06:52:32;;;;;;;2.83;1.40;;;36.80;39.50;;;;;;5008515;28;20174;-78
2023/06/15 06:54:58;;;;;;;2.90;1.53;;;36.90;38.50;;;;;;5010098;28;20685;-77
2023/06/15 06:57:24;;;;;;;2.50;1.20;;;37.00;38.30;;;;;;4992771;28;20751;-79
2023/06/15 06:59:50;;;;;;;5.00;1.73;;;37.30;38.20;;;;;;5009047;28;20182;-78
2023/06/15 07:02:16;;;;;;;2.77;1.33;;;37.50;37.70;;;;;;5009511;28;20615;-77
2023/06/15 07:04:42;;;;;;;3.03;1.80;;;37.80;36.60;;;;;;5009707;28;20608;-77
2023/06/15 07:07:08;;;;;;;3.10;1.33;;;37.70;36.30;;;;;;5010144;28;20276;-77
2023/06/15 07:09:34;;;;;;;2.77;1.40;;;37.70;35.80;;;;;;5008452;28;20191;-77
2023/06/15 07:12:00;;;;;;;3.97;1.17;;;37.60;35.40;;;;;;4991752;28;20551;-77
2023/06/15 07:14:26;;;;;;;3.77;1.33;;;37.70;35.60;;;;;;5009006;28;20613;-78
2023/06/15 07:16:52;;;;;;;3.60;1.60;;;37.60;35.10;;;;;;5005876;28;21044;-77
2023/06/15 07:19:18;;;;;;;1.73;1.37;;;37.60;34.90;;;;;;4981709;28;20176;-78
2023/06/15 07:21:43;;;;;;;2.23;1.33;;;37.70;34.90;;;;;;5006246;28;20209;-78
2023/06/15 07:24:09;;;;;;;3.60;1.43;;;38.00;35.10;;;;;;5010364;28;20217;-80
2023/06/15 07:26:35;;;;;;;2.23;1.23;;;38.40;35.20;;;;;;5024917;28;20201;-80
2023/06/15 07:29:01;;;;;;;4.07;1.83;;;38.70;34.80;;;;;;5009769;28;20265;-78
2023/06/15 07:31:28;;;;;;;4.67;1.20;;;38.90;34.30;;;;;;5007698;28;20182;-80
2023/06/15 07:33:54;;;;;;;3.70;1.43;;;38.80;33.40;;;;;;5009715;28;20217;-79
2023/06/15 07:36:20;;;;;;;2.67;1.50;;;39.10;33.60;;;;;;5001040;28;20677;-78
2023/06/15 07:38:46;;;;;;;4.43;1.63;;;39.10;33.00;;;;;;5013897;28;20189;-79
2023/06/15 07:41:12;;;;;;;3.00;1.20;;;39.10;33.00;;;;;;5014650;28;20174;-78
2023/06/15 07:43:37;;;;;;;2.90;1.23;;;39.20;32.20;;;;;;5015302;28;20178;-79
2023/06/15 07:46:03;;;;;;;4.13;1.43;;;39.10;31.80;;;;;;5017149;28;20652;-79
2023/06/15 07:48:30;;;;;;;4.20;1.50;;;38.80;31.20;;;;;;5016866;28;20194;-79
2023/06/15 07:50:56;;;;;;;2.33;1.30;;;38.70;31.60;;;;;;5019107;28;20166;-79
2023/06/15 07:53:21;;;;;;;2.60;1.27;;;38.60;31.40;;;;;;5023774;28;20588;-80
2023/06/15 07:55:47;;;;;;;3.40;1.20;;;38.50;31.40;;;;;;5016580;28;20213;-80
2023/06/15 07:58:13;;;;;;;2.50;1.47;;;38.40;31.10;;;;;;5016671;28;20182;-79
2023/06/15 08:00:39;;;;;;;5.50;1.70;;;38.50;31.70;;;;;;5015019;28;20178;-79
2023/06/15 08:03:04;;;;;;;2.20;1.37;;;38.20;30.70;;;;;;5031245;28;20723;-80
2023/06/15 08:05:30;;;;;;;2.73;1.20;;;38.30;31.20;;;;;;5016453;28;20220;-80
2023/06/15 08:07:56;;;;;;;2.97;1.23;;;38.50;31.20;;;;;;5015599;28;20193;-79
2023/06/15 08:10:22;;;;;;;2.00;1.30;;;38.60;31.30;;;;;;4998888;28;20178;-79
2023/06/15 08:12:47;;;;;;;3.50;2.00;;;38.90;30.70;;;;;;5015127;28;20642;-79
2023/06/15 08:15:13;;;;;;;2.83;1.10;;;39.10;30.50;;;;;;4980947;28;20636;-79
2023/06/15 08:17:39;;;;;;;4.53;1.70;;;39.30;30.80;;;;;;4975051;28;20183;-79
2023/06/15 08:20:08;;;;;;;5.90;1.63;;;39.40;29.50;;;;;;4975784;28;20585;-79
2023/06/15 08:22:34;;;;;;;1.90;1.20;;;39.40;29.60;;;;;;4974590;28;20179;-79
2023/06/15 08:24:59;;;;;;;3.03;1.40;;;39.30;29.70;;;;;;4974667;28;20621;-79
2023/06/15 08:27:25;;;;;;;2.97;1.40;;;39.30;29.10;;;;;;4974748;28;20255;-79
2023/06/15 08:29:51;;;;;;;3.03;1.10;;;39.10;29.10;;;;;;4976183;28;20167;-79
2023/06/15 08:32:16;;;;;;;2.00;1.30;;;39.00;29.20;;;;;;4975698;28;20164;-79
2023/06/15 08:34:43;;;;;;;2.10;1.23;;;38.80;29.10;;;;;;4977236;28;20204;-79
2023/06/15 08:37:11;;;;;;;2.97;1.40;;;38.90;29.30;;;;;;4996754;28;20609;-78
2023/06/15 08:39:38;;;;;;;2.27;1.30;;;39.10;29.30;;;;;;5015367;28;20623;-78
2023/06/15 08:42:04;;;;;;;2.20;1.50;;;39.50;30.00;;;;;;5015311;28;20679;-78
2023/06/15 08:44:40;;;;;;;3.10;1.10;;;39.60;28.70;;;;;;5015290;28;20638;-78
2023/06/15 08:47:06;;;;;;;2.10;1.30;;;39.60;28.50;;;;;;5016827;28;20731;-79
2023/06/15 08:49:32;;;;;;;4.07;1.33;;;39.70;28.80;;;;;;5014262;28;20704;-78
2023/06/15 08:52:01;;;;;;;3.23;1.47;;;39.90;29.10;;;;;;5011360;28;20181;-80
2023/06/15 08:54:30;;;;;;;4.20;1.73;;;40.30;29.10;;;;;;5012883;28;20581;-79
2023/06/15 08:56:56;;;;;;;2.77;1.27;;;40.60;28.90;;;;;;5011820;28;20635;-79
2023/06/15 08:59:22;;;;;;;2.00;1.33;;;40.90;29.20;;;;;;5012683;28;20966;-79
2023/06/15 09:01:48;;;;;;;5.87;1.47;;;41.30;28.90;;;;;;5027344;28;20585;-79
2023/06/15 09:04:15;;;;;;;3.30;1.67;;;41.60;28.70;;;;;;5011796;28;20178;-79
2023/06/15 09:06:41;;;;;;;2.03;1.20;;;41.60;27.60;;;;;;5012794;28;21172;-79
2023/06/15 09:09:09;;;;;;;3.07;2.43;;;41.30;27.20;;;;;;5010889;28;20676;-79
2023/06/15 09:11:40;;;;;;;3.13;1.70;;;41.00;27.30;;;;;;4982302;28;20168;-79
2023/06/15 09:14:08;;;;;;;2.77;1.43;;;41.00;27.60;;;;;;4991457;28;20672;-80
2023/06/15 09:16:34;;;;;;;3.90;1.40;;;40.70;26.90;;;;;;4991690;28;20610;-79
2023/06/15 09:19:00;;;;;;;2.57;1.30;;;40.30;26.80;;;;;;4992282;28;20601;-78
2023/06/15 09:21:28;;;;;;;2.97;1.27;;;39.90;27.30;;;;;;4991857;28;20211;-79
2023/06/15 09:24:03;;;;;;;4.57;2.17;;;39.60;27.00;;;;;;4991943;28;20653;-79
2023/06/15 09:26:29;;;;;;;2.37;1.20;;;38.90;26.20;;;;;;4993202;28;20656;-78
2023/06/15 09:28:56;;;;;;;4.60;1.90;;;38.40;26.80;;;;;;4991601;28;20586;-78
2023/06/15 09:31:33;;;;;;;6.47;2.17;;;38.10;27.00;;;;;;4990261;28;20182;-79
2023/06/15 09:34:10;;;;;;;3.50;1.33;;;38.20;27.70;;;;;;4991620;28;20586;-79
2023/06/15 09:36:44;;;;;;;3.73;1.50;;;38.50;28.00;;;;;;4993736;28;20680;-79
2023/06/15 09:39:13;;;;;;;3.20;1.70;;;38.90;28.30;;;;;;5012165;28;20647;-79
2023/06/15 09:41:56;;;;;;;2.60;1.40;;;39.40;28.20;;;;;;5009823;28;20589;-78
2023/06/15 09:44:23;;;;;;;2.80;1.50;;;39.80;28.40;;;;;;4994435;28;20600;-79
2023/06/15 09:46:51;;;;;;;2.23;1.50;;;40.40;28.30;;;;;;5011172;28;20735;-79
2023/06/15 09:49:27;;;;;;;2.97;1.30;;;40.70;27.00;;;;;;5010506;28;20573;-79
2023/06/15 09:51:54;;;;;;;2.53;1.87;;;40.90;26.40;;;;;;5010644;28;20653;-79
2023/06/15 09:54:21;;;;;;;2.63;1.43;;;40.90;25.90;;;;;;4994004;28;20624;-79
2023/06/15 09:56:50;;;;;;;1.90;1.23;;;40.60;25.60;;;;;;5009629;28;20629;-79
2023/06/15 09:59:17;;;;;;;2.10;1.30;;;40.40;25.60;;;;;;5009715;28;20601;-79
2023/06/15 10:01:50;;;;;;;4.33;1.70;;;40.30;26.00;;;;;;5009241;28;20631;-78
2023/06/15 10:04:19;;;;;;;7.40;1.90;;;40.40;25.60;;;;;;5010392;28;20640;-79
2023/06/15 10:06:50;;;;;;;4.27;1.67;;;40.60;26.10;;;;;;4998670;28;20686;-78
2023/06/15 10:09:21;;;;;;;3.33;1.40;;;40.40;25.60;;;;;;4975870;28;20594;-79
2023/06/15 10:11:49;;;;;;;2.53;2.03;;;40.10;25.60;;;;;;4970644;28;20591;-79
2023/06/15 10:14:21;;;;;;;2.53;2.00;;;40.10;25.90;;;;;;4972207;28;20637;-79
2023/06/15 10:16:53;;;;;;;4.67;1.40;;;39.90;25.70;;;;;;4972557;28;20625;-79
2023/06/15 10:19:21;;;;;;;4.90;1.47;;;40.10;26.20;;;;;;4970834;28;20619;-79
2023/06/15 10:21:49;;;;;;;3.70;1.33;;;40.20;26.00;;;;;;4970620;28;20606;-78
2023/06/15 10:24:19;;;;;;;4.00;1.87;;;40.10;25.70;;;;;;4970789;28;20578;-79
2023/06/15 10:26:45;;;;;;;3.23;1.80;;;39.70;24.80;;;;;;4971026;28;20657;-79
2023/06/15 10:29:25;;;;;;;3.47;1.83;;;39.00;24.90;;;;;;4971745;28;21145;-79
2023/06/15 10:32:36;;;;;;;2.60;1.57;;;38.40;24.70;;;;;;4970115;28;20635;-78
2023/06/15 10:35:09;;;;;;;3.13;1.50;;;37.60;25.40;;;;;;4970176;28;20607;-79
2023/06/15 10:37:48;;;;;;;1.90;1.37;;;36.80;25.40;;;;;;5000603;28;21160;-78
2023/06/15 10:40:41;;;;;;;6.80;2.30;;;36.10;25.90;;;;;;5009807;28;20594;-79
2023/06/15 10:43:07;;;;;;;4.23;1.53;;;35.40;26.10;;;;;;5026076;28;20599;-78
2023/06/15 10:45:34;;;;;;;3.13;1.93;;;34.60;26.30;;;;;;5010384;28;20613;-79
2023/06/15 10:48:03;;;;;;;2.63;1.90;;;34.10;26.60;;;;;;5009135;28;20175;-79
2023/06/15 10:50:48;;;;;;;2.60;1.53;;;33.60;27.10;;;;;;5010225;28;20585;-79
2023/06/15 10:53:22;;;;;;;3.43;1.83;;;33.10;27.60;;;;;;5009527;28;20585;-79
2023/06/15 10:55:51;;;;;;;3.00;1.67;;;32.70;27.70;;;;;;5010285;28;20636;-79
2023/06/15 10:58:17;;;;;;;3.20;1.80;;;32.40;27.90;;;;;;5009595;28;20606;-79
2023/06/15 11:00:44;;;;;;;3.20;1.83;;;32.10;28.20;;;;;;5010040;28;20607;-79
2023/06/15 11:03:24;;;;;;;5.73;2.07;;;31.90;28.60;;;;;;4996153;28;20621;-79
2023/06/15 11:06:02;;;;;;;6.43;2.20;;;31.90;29.50;;;;;;4953676;28;21421;-78
2023/06/15 11:08:31;;;;;;;5.73;2.00;;;32.20;30.00;;;;;;4970557;28;20587;-79
2023/06/15 11:10:57;;;;;;;3.60;1.97;;;32.70;30.00;;;;;;4985600;28;20625;-79
2023/06/15 11:13:26;;;;;;;2.70;1.60;;;33.20;30.00;;;;;;4971070;28;20625;-79
2023/06/15 11:16:08;;;;;;;4.33;2.27;;;33.80;30.00;;;;;;4971837;28;20198;-79
2023/06/15 11:18:36;;;;;;;3.37;1.70;;;34.30;29.80;;;;;;4971623;28;20932;-79
2023/06/15 11:21:02;;;;;;;3.30;1.40;;;35.00;29.70;;;;;;4969427;28;21357;-78
2023/06/15 11:23:33;;;;;;;4.10;1.90;;;35.60;29.30;;;;;;4969619;28;20606;-79
2023/06/15 11:26:01;;;;;;;3.53;1.60;;;36.20;28.90;;;;;;4971166;28;20654;-80
2023/06/15 11:28:31;;;;;;;2.47;1.50;;;36.70;28.10;;;;;;4969652;28;21134;-79
2023/06/15 11:31:01;;;;;;;2.90;1.23;;;37.20;27.70;;;;;;4969519;28;20615;-80
2023/06/15 11:33:31;;;;;;;2.73;1.60;;;37.50;27.30;;;;;;4970780;28;20586;-79
2023/06/15 11:36:03;;;;;;;2.80;1.80;;;37.90;27.10;;;;;;4975673;28;20738;-79
2023/06/15 11:38:32;;;;;;;4.83;1.60;;;38.20;27.30;;;;;;5006792;28;20597;-79
2023/06/15 11:41:05;;;;;;;3.13;1.70;;;38.50;27.50;;;;;;5009829;28;20588;-80
2023/06/15 11:43:42;;;;;;;4.63;2.17;;;38.70;27.40;;;;;;5008523;28;20589;-80
2023/06/15 11:46:12;;;;;;;3.07;1.70;;;38.90;27.10;;;;;;5011218;28;20683;-78
2023/06/15 11:48:39;;;;;;;6.63;1.70;;;38.80;26.50;;;;;;4996823;28;20992;-79
2023/06/15 11:51:12;;;;;;;3.33;1.60;;;38.50;25.90;;;;;;5008275;28;20600;-79
2023/06/15 11:53:42;;;;;;;1.80;1.20;;;38.10;26.00;;;;;;5008902;28;20609;-79
2023/06/15 11:56:13;;;;;;;5.20;1.60;;;37.90;25.80;;;;;;5024956;28;21232;-79
2023/06/15 11:58:44;;;;;;;3.90;1.40;;;37.70;25.50;;;;;;5002013;28;20683;-79
2023/06/15 12:01:16;;;;;;;2.07;1.37;;;37.40;25.70;;;;;;4982618;28;21063;-79
2023/06/15 12:03:47;;;;;;;3.03;1.63;;;37.30;25.80;;;;;;4969960;28;20602;-80
2023/06/15 12:06:18;;;;;;;5.07;1.50;;;37.10;25.70;;;;;;4969328;28;20736;-80
2023/06/15 12:08:46;;;;;;;3.00;1.80;;;36.90;25.90;;;;;;4970894;28;20587;-80
2023/06/15 12:11:12;;;;;;;2.67;1.70;;;36.80;26.10;;;;;;4968597;28;20583;-80
2023/06/15 12:13:39;;;;;;;4.87;2.07;;;36.80;26.30;;;;;;4970033;28;21347;-79
2023/06/15 12:16:05;;;;;;;3.93;1.80;;;36.80;26.20;;;;;;4970431;28;20701;-80
2023/06/15 12:18:31;;;;;;;2.53;1.90;;;36.60;25.70;;;;;;4971213;28;20583;-79
2023/06/15 12:21:00;;;;;;;3.87;1.60;;;36.40;25.90;;;;;;4953016;28;20650;-78
2023/06/15 12:23:32;;;;;;;4.43;1.47;;;36.20;25.80;;;;;;4968777;28;20191;-79
2023/06/15 12:25:59;;;;;;;4.30;1.70;;;36.00;25.70;;;;;;4971690;28;20652;-80
2023/06/15 12:28:27;;;;;;;2.23;1.40;;;35.80;25.70;;;;;;4973053;28;20685;-80
2023/06/15 12:31:01;;;;;;;3.40;1.43;;;35.70;25.80;;;;;;4956458;28;20696;-79
2023/06/15 12:33:42;;;;;;;4.33;1.57;;;35.60;25.90;;;;;;4974284;28;20599;-78
2023/06/15 12:36:14;;;;;;;2.57;1.70;;;35.50;25.70;;;;;;4978619;28;20629;-80
2023/06/15 12:38:42;;;;;;;2.40;1.40;;;35.30;25.80;;;;;;4995280;28;20608;-80
2023/06/15 12:41:13;;;;;;;2.63;1.40;;;35.30;26.30;;;;;;5012189;28;20994;-79
2023/06/15 12:43:39;;;;;;;8.10;1.70;;;35.30;26.40;;;;;;5011982;28;20600;-80
2023/06/15 12:46:05;;;;;;;3.27;2.33;;;35.30;26.30;;;;;;5013058;28;20642;-79
2023/06/15 12:48:33;;;;;;;3.40;2.07;;;35.20;26.20;;;;;;5011375;28;20606;-77
2023/06/15 12:50:59;;;;;;;2.30;1.67;;;35.10;26.10;;;;;;5011005;28;20188;-78
2023/06/15 12:53:26;;;;;;;4.10;1.60;;;34.80;25.90;;;;;;4990277;28;20693;-77
2023/06/15 12:55:55;;;;;;;2.20;1.70;;;34.50;25.90;;;;;;4979108;28;20661;-77